Time;durP1;ratioP1;P1;durP2;ratioP2;P2;SDS_P1;SDS_P2;PMS_P1;PMS_P2;Temp;Humidity;BMP_temperature;BMP_pressure;BME280_temperature;BME280_humidity;BME280_pressure;Samples;Min_cycle;Max_cycle;Signal;HPM_P1;HPM_P2
2022/05/23 00:01:49;;;;;;;4.22;1.48;;;14.10;99.90;;;;;;5093402;28;20052;-73
2022/05/23 00:04:15;;;;;;;4.07;1.90;;;14.10;99.90;;;;;;5075048;28;20044;-73
2022/05/23 00:06:42;;;;;;;5.03;1.90;;;14.10;99.90;;;;;;5075482;28;20044;-73
2022/05/23 00:09:09;;;;;;;6.53;1.67;;;14.10;99.90;;;;;;5093742;28;20090;-73
2022/05/23 00:11:35;;;;;;;5.03;1.80;;;14.00;99.90;;;;;;5075238;28;20048;-73
2022/05/23 00:14:01;;;;;;;7.20;1.90;;;14.00;99.90;;;;;;5093489;28;20043;-73
2022/05/23 00:16:31;;;;;;;4.90;1.63;;;14.10;99.90;;;;;;5074044;28;20063;-72
2022/05/23 00:18:58;;;;;;;8.60;1.88;;;14.00;99.90;;;;;;5078213;28;20114;-72
2022/05/23 00:21:23;;;;;;;12.23;1.70;;;13.80;99.90;;;;;;5093147;28;20048;-72
2022/05/23 00:23:49;;;;;;;7.95;2.25;;;13.80;99.90;;;;;;5092942;28;20047;-73
2022/05/23 00:26:19;;;;;;;5.07;1.60;;;13.80;99.90;;;;;;5093049;28;20094;-73
2022/05/23 00:28:45;;;;;;;9.48;1.77;;;13.70;99.90;;;;;;5092669;28;20054;-74
2022/05/23 00:31:11;;;;;;;6.18;1.58;;;13.60;99.90;;;;;;5092902;28;20544;-73
2022/05/23 00:36:24;;;;;;;7.50;1.90;;;13.60;99.90;;;;;;5092823;28;20052;-74
2022/05/23 00:38:51;;;;;;;4.78;1.60;;;13.60;99.90;;;;;;5093257;28;20086;-73
2022/05/23 00:44:55;;;;;;;5.90;2.08;;;13.50;99.90;;;;;;4971198;28;20058;-73
2022/05/23 00:47:24;;;;;;;4.18;1.83;;;13.50;99.90;;;;;;4971380;28;20498;-73
2022/05/23 00:49:49;;;;;;;6.32;1.90;;;13.40;99.90;;;;;;4970695;28;20417;-73
2022/05/23 00:52:25;;;;;;;9.73;1.70;;;13.50;99.90;;;;;;4971272;28;20047;-73
2022/05/23 00:54:54;;;;;;;4.07;1.83;;;13.40;99.90;;;;;;4954144;28;20054;-73
2022/05/23 00:57:33;;;;;;;5.72;1.67;;;13.30;99.90;;;;;;4970821;28;20070;-77
2022/05/23 01:00:01;;;;;;;4.57;1.65;;;13.30;99.90;;;;;;4955378;28;20575;-75
2022/05/23 01:02:28;;;;;;;7.30;1.77;;;13.20;99.90;;;;;;4971158;28;20058;-73
2022/05/23 01:04:54;;;;;;;5.53;1.60;;;13.20;99.90;;;;;;4971063;28;20064;-76
2022/05/23 01:07:20;;;;;;;4.10;1.50;;;13.20;99.90;;;;;;4971248;28;20065;-74
2022/05/23 01:09:47;;;;;;;8.75;1.70;;;13.10;99.90;;;;;;4954829;28;20059;-73
2022/05/23 01:12:13;;;;;;;4.65;2.08;;;13.10;99.90;;;;;;4955047;28;20173;-74
2022/05/23 01:14:53;;;;;;;3.65;1.58;;;13.10;99.90;;;;;;4989388;28;20149;-78
2022/05/23 01:17:20;;;;;;;6.18;1.75;;;13.10;99.90;;;;;;5029879;28;20064;-74
2022/05/23 01:19:46;;;;;;;8.23;1.92;;;13.00;99.90;;;;;;5029227;28;20053;-74
2022/05/23 01:22:25;;;;;;;7.97;1.73;;;13.00;99.90;;;;;;5085639;28;20068;-74
2022/05/23 01:25:18;;;;;;;7.15;2.15;;;13.00;99.90;;;;;;5091752;28;20530;-73
2022/05/23 01:27:45;;;;;;;4.28;1.60;;;12.90;99.90;;;;;;5061724;28;20113;-74
2022/05/23 01:30:11;;;;;;;3.03;1.70;;;12.90;99.90;;;;;;5053590;28;20078;-76
2022/05/23 01:32:38;;;;;;;5.18;2.05;;;12.90;99.90;;;;;;5071587;28;20091;-73
2022/05/23 01:35:08;;;;;;;5.60;1.73;;;12.90;99.90;;;;;;5071301;28;20059;-74
2022/05/23 01:37:35;;;;;;;5.10;2.00;;;12.80;99.90;;;;;;5071282;28;20051;-74
2022/05/23 01:40:01;;;;;;;4.97;2.10;;;12.90;99.90;;;;;;5071112;28;20090;-73
2022/05/23 01:42:26;;;;;;;7.40;1.88;;;12.80;99.90;;;;;;5071072;28;20487;-73
2022/05/23 01:44:52;;;;;;;9.68;1.80;;;12.90;99.90;;;;;;5053363;28;20048;-74
2022/05/23 01:47:19;;;;;;;7.00;2.22;;;13.00;99.90;;;;;;5071233;28;20044;-75
2022/05/23 01:49:45;;;;;;;4.88;1.80;;;12.80;99.90;;;;;;5070509;28;20136;-74
2022/05/23 01:52:11;;;;;;;4.38;1.90;;;12.80;99.90;;;;;;5053857;28;20461;-75
2022/05/23 01:54:38;;;;;;;7.75;2.15;;;12.80;99.90;;;;;;5091369;28;20079;-74
2022/05/23 01:57:08;;;;;;;4.35;1.73;;;12.80;99.90;;;;;;5072528;28;20812;-73
2022/05/23 02:02:18;;;;;;;12.30;2.10;;;12.80;99.90;;;;;;5089468;28;20048;-74
2022/05/23 02:04:45;;;;;;;5.97;2.13;;;13.00;99.90;;;;;;5090875;28;20518;-74
2022/05/23 02:07:12;;;;;;;5.57;2.25;;;12.90;99.90;;;;;;5089231;28;20055;-74
2022/05/23 02:09:38;;;;;;;7.47;2.15;;;12.90;99.90;;;;;;5091006;28;20051;-74
2022/05/23 02:12:06;;;;;;;4.22;2.30;;;12.90;99.90;;;;;;5091033;28;20055;-73
2022/05/23 02:14:32;;;;;;;7.32;2.42;;;12.90;99.90;;;;;;5089783;28;20540;-74
2022/05/23 02:16:57;;;;;;;7.75;2.60;;;12.90;99.90;;;;;;5086718;28;20146;-72
2022/05/23 02:19:23;;;;;;;6.80;2.08;;;12.90;99.90;;;;;;5090947;28;20143;-74
2022/05/23 02:21:49;;;;;;;8.82;2.75;;;12.90;99.90;;;;;;5089225;28;20552;-74
2022/05/23 02:24:16;;;;;;;4.10;2.35;;;12.90;99.90;;;;;;5083786;28;20048;-73
2022/05/23 02:26:42;;;;;;;9.15;2.58;;;12.90;99.90;;;;;;5072371;28;20052;-73
2022/05/23 02:29:09;;;;;;;6.55;2.33;;;12.90;99.90;;;;;;5071771;28;20462;-76
2022/05/23 02:31:35;;;;;;;5.82;2.65;;;12.90;99.90;;;;;;5089811;28;20456;-74
2022/05/23 02:34:01;;;;;;;5.60;2.20;;;12.90;99.90;;;;;;5090444;28;20048;-73
2022/05/23 02:36:28;;;;;;;7.78;2.53;;;13.00;99.90;;;;;;5082569;28;20075;-73
2022/05/23 02:38:54;;;;;;;5.85;2.50;;;12.90;99.90;;;;;;5088151;28;20099;-74
2022/05/23 02:41:20;;;;;;;4.93;2.28;;;12.90;99.90;;;;;;5090555;28;20047;-73
2022/05/23 02:43:45;;;;;;;5.40;2.00;;;12.90;99.90;;;;;;5089338;28;20040;-73
2022/05/23 02:46:11;;;;;;;6.20;2.80;;;12.90;99.90;;;;;;5090403;28;20044;-72
2022/05/23 02:48:36;;;;;;;6.78;2.60;;;13.00;99.90;;;;;;5089678;28;20036;-73
2022/05/23 02:51:02;;;;;;;4.50;2.60;;;12.90;99.90;;;;;;5090023;28;20134;-73
2022/05/23 02:53:28;;;;;;;5.45;2.85;;;12.90;99.90;;;;;;5089422;28;20044;-74
2022/05/23 02:55:53;;;;;;;6.22;2.72;;;12.80;99.90;;;;;;5090172;28;20048;-76
2022/05/23 02:58:20;;;;;;;6.15;2.53;;;12.90;99.90;;;;;;5072067;28;20048;-73
2022/05/23 03:00:46;;;;;;;4.45;2.70;;;12.80;99.90;;;;;;5089663;28;20039;-75
2022/05/23 03:03:12;;;;;;;6.82;2.50;;;12.80;99.90;;;;;;5089385;28;20521;-75
2022/05/23 03:05:40;;;;;;;6.50;2.60;;;12.80;99.90;;;;;;5089646;28;20044;-74
2022/05/23 03:08:07;;;;;;;5.15;2.67;;;12.90;99.90;;;;;;5089118;28;20071;-74
2022/05/23 03:10:33;;;;;;;6.80;2.75;;;12.80;99.90;;;;;;5090074;28;20058;-74
2022/05/23 03:12:59;;;;;;;7.88;2.70;;;12.80;99.90;;;;;;5090112;28;20051;-73
2022/05/23 03:15:25;;;;;;;7.93;2.90;;;12.70;99.90;;;;;;5089146;28;20033;-72
2022/05/23 03:17:50;;;;;;;6.25;2.90;;;12.70;99.90;;;;;;5088646;28;20137;-72
2022/05/23 03:20:17;;;;;;;5.65;2.80;;;12.70;99.90;;;;;;5089756;28;20036;-74
2022/05/23 03:28:12;;;;;;;7.60;3.13;;;12.70;99.90;;;;;;5089974;28;20040;-74
2022/05/23 03:30:38;;;;;;;10.40;3.17;;;12.60;99.90;;;;;;5089725;28;20066;-74
2022/05/23 03:33:04;;;;;;;5.70;3.08;;;12.60;99.90;;;;;;5088420;28;20730;-74
2022/05/23 03:35:32;;;;;;;7.28;3.08;;;12.50;99.90;;;;;;5089942;28;20046;-74
2022/05/23 03:37:58;;;;;;;9.00;2.83;;;12.60;99.90;;;;;;5079445;28;20143;-72
2022/05/23 03:40:24;;;;;;;10.43;3.30;;;12.50;99.90;;;;;;5068180;28;20494;-73
2022/05/23 03:42:50;;;;;;;8.27;2.88;;;12.60;99.90;;;;;;5069498;28;20126;-73
2022/05/23 03:45:15;;;;;;;5.93;3.05;;;12.60;99.90;;;;;;5069533;28;20510;-72
2022/05/23 03:47:41;;;;;;;4.80;2.58;;;12.50;99.90;;;;;;5066310;28;20482;-74
2022/05/23 03:50:08;;;;;;;5.57;2.80;;;12.50;99.90;;;;;;5089615;28;20467;-73
2022/05/23 03:52:34;;;;;;;7.63;3.35;;;12.50;99.90;;;;;;5089487;28;20047;-74
2022/05/23 03:55:00;;;;;;;8.85;3.05;;;12.50;99.90;;;;;;5071492;28;20044;-73
2022/05/23 03:57:25;;;;;;;7.30;3.13;;;12.50;99.90;;;;;;5089699;28;20509;-74
2022/05/23 03:59:54;;;;;;;8.70;3.15;;;12.50;99.90;;;;;;5089390;28;20051;-74
2022/05/23 04:02:20;;;;;;;8.35;3.75;;;12.50;99.90;;;;;;5069417;28;20425;-75
2022/05/23 04:04:47;;;;;;;4.40;2.97;;;12.50;99.90;;;;;;5088868;28;20063;-75
2022/05/23 04:07:13;;;;;;;5.85;3.05;;;12.60;99.90;;;;;;5089432;28;20083;-73
2022/05/23 04:09:40;;;;;;;6.93;3.20;;;12.60;99.90;;;;;;5089534;28;20119;-74
2022/05/23 04:12:06;;;;;;;5.63;2.75;;;12.60;99.90;;;;;;5089442;28;20571;-73
2022/05/23 04:14:32;;;;;;;9.63;3.45;;;12.50;99.90;;;;;;5088786;28;20048;-73
2022/05/23 04:16:58;;;;;;;9.50;3.20;;;12.50;99.90;;;;;;5089112;28;20491;-73
2022/05/23 04:19:25;;;;;;;5.43;3.30;;;12.50;99.90;;;;;;5089539;28;20056;-73
2022/05/23 04:21:51;;;;;;;9.63;3.33;;;12.50;99.90;;;;;;5070680;28;20051;-74
2022/05/23 04:24:18;;;;;;;7.93;3.05;;;12.70;99.90;;;;;;5089490;28;20040;-73
2022/05/23 04:26:44;;;;;;;5.60;3.50;;;12.60;99.90;;;;;;5089273;28;20517;-73
2022/05/23 04:29:10;;;;;;;8.80;3.65;;;12.50;99.90;;;;;;5089211;28;20414;-73
2022/05/23 04:31:36;;;;;;;5.97;3.20;;;12.60;99.90;;;;;;5092531;28;20086;-73
2022/05/23 04:36:50;;;;;;;6.90;3.40;;;12.80;99.90;;;;;;5092858;28;20058;-75
2022/05/23 04:39:16;;;;;;;8.88;3.22;;;12.70;99.90;;;;;;5093051;28;20126;-74
2022/05/23 04:41:42;;;;;;;6.85;3.70;;;12.80;99.90;;;;;;5093210;28;20136;-73
2022/05/23 04:44:07;;;;;;;9.35;3.50;;;12.70;99.90;;;;;;5092408;28;20466;-76
2022/05/23 04:46:33;;;;;;;8.15;3.35;;;12.70;99.90;;;;;;5073835;28;20552;-73
2022/05/23 04:51:57;;;;;;;6.47;3.55;;;12.90;99.90;;;;;;5029325;28;20108;-72
2022/05/23 04:54:23;;;;;;;10.85;3.58;;;12.80;99.90;;;;;;5029714;28;20046;-73
2022/05/23 04:56:49;;;;;;;7.47;3.15;;;12.90;99.90;;;;;;5029855;28;20041;-74
2022/05/23 04:59:15;;;;;;;8.38;4.13;;;13.00;99.90;;;;;;5029862;28;20049;-73
2022/05/23 05:01:40;;;;;;;6.70;3.13;;;13.00;99.90;;;;;;5022297;28;20057;-72
2022/05/23 05:04:06;;;;;;;6.47;3.40;;;13.10;99.90;;;;;;5009779;28;20592;-75
2022/05/23 05:06:32;;;;;;;7.35;3.40;;;13.10;99.90;;;;;;5010044;28;20053;-73
2022/05/23 05:08:57;;;;;;;7.50;3.95;;;13.20;99.90;;;;;;4993431;28;20139;-75
2022/05/23 05:11:23;;;;;;;6.88;3.90;;;13.20;99.90;;;;;;5009648;28;20584;-74
2022/05/23 05:13:48;;;;;;;6.78;3.65;;;13.30;99.90;;;;;;5009508;28;20050;-74
2022/05/23 05:16:19;;;;;;;5.78;3.63;;;13.40;99.90;;;;;;5016287;28;20057;-73
2022/05/23 05:18:44;;;;;;;8.90;3.88;;;13.50;99.90;;;;;;5013084;28;20574;-74
2022/05/23 05:21:11;;;;;;;10.73;4.10;;;13.50;99.90;;;;;;5029688;28;20053;-72
2022/05/23 05:23:37;;;;;;;6.93;3.50;;;13.60;99.90;;;;;;5028864;28;20045;-74
2022/05/23 05:26:05;;;;;;;7.47;3.50;;;13.60;99.90;;;;;;5029463;28;20061;-76
2022/05/23 05:28:31;;;;;;;9.18;4.00;;;13.70;99.90;;;;;;5067613;28;20403;-78
2022/05/23 05:31:12;;;;;;;7.88;3.25;;;13.70;99.90;;;;;;5071257;28;20190;-74
2022/05/23 05:33:46;;;;;;;7.32;4.15;;;13.80;99.90;;;;;;5053926;28;20067;-74
2022/05/23 05:36:21;;;;;;;7.07;3.88;;;14.00;99.90;;;;;;5071095;28;20056;-74
2022/05/23 05:38:55;;;;;;;7.65;4.10;;;13.80;99.90;;;;;;5071118;28;20152;-75
2022/05/23 05:41:36;;;;;;;10.30;4.20;;;13.90;99.90;;;;;;5070938;28;20052;-74
2022/05/23 05:44:09;;;;;;;8.25;3.70;;;13.90;99.90;;;;;;5071693;28;20075;-74
2022/05/23 05:46:41;;;;;;;10.45;3.88;;;13.90;99.90;;;;;;5071552;28;20123;-75
2022/05/23 05:49:12;;;;;;;8.18;4.18;;;13.90;99.90;;;;;;5071059;28;20097;-73
2022/05/23 05:51:40;;;;;;;9.90;3.88;;;14.10;99.90;;;;;;5052951;28;20055;-74
2022/05/23 05:54:07;;;;;;;8.75;4.10;;;14.10;99.90;;;;;;5070920;28;20498;-74
2022/05/23 05:56:33;;;;;;;12.05;4.40;;;14.20;99.90;;;;;;5070412;28;20057;-75
2022/05/23 05:59:00;;;;;;;6.70;3.83;;;14.30;99.90;;;;;;5071103;28;20040;-74
2022/05/23 06:01:25;;;;;;;7.13;4.05;;;14.40;99.90;;;;;;5069961;28;20059;-75
2022/05/23 06:03:51;;;;;;;11.05;3.72;;;14.50;99.90;;;;;;5039522;28;20479;-75
2022/05/23 06:11:45;;;;;;;7.20;3.22;;;14.70;99.90;;;;;;5071026;28;20052;-74
2022/05/23 06:14:11;;;;;;;10.07;3.80;;;14.80;99.90;;;;;;5053269;28;20075;-78
2022/05/23 06:16:37;;;;;;;11.77;4.10;;;14.80;99.90;;;;;;5052083;28;20052;-71
2022/05/23 06:19:04;;;;;;;12.02;3.92;;;14.90;99.90;;;;;;5070785;28;20063;-75
2022/05/23 06:21:30;;;;;;;8.10;3.72;;;15.00;99.90;;;;;;5069984;28;20111;-74
2022/05/23 06:23:56;;;;;;;7.75;3.63;;;15.20;99.90;;;;;;5070394;28;20052;-76
2022/05/23 06:26:26;;;;;;;8.13;4.05;;;15.30;99.90;;;;;;5070632;28;20051;-80
2022/05/23 06:28:52;;;;;;;7.70;4.00;;;15.40;99.90;;;;;;5070507;28;20127;-78
2022/05/23 06:31:19;;;;;;;10.48;3.72;;;15.60;99.90;;;;;;5069231;28;20046;-81
2022/05/23 06:33:45;;;;;;;8.77;3.83;;;15.60;99.90;;;;;;5070006;28;20491;-75
2022/05/23 06:36:12;;;;;;;10.75;3.90;;;15.70;99.90;;;;;;5052134;28;20102;-73
2022/05/23 06:38:39;;;;;;;6.78;3.17;;;15.70;99.90;;;;;;5070328;28;20540;-73
2022/05/23 06:41:07;;;;;;;10.45;3.45;;;15.80;99.90;;;;;;5051864;28;20059;-72
2022/05/23 06:43:34;;;;;;;7.97;3.55;;;16.00;99.90;;;;;;5070227;28;20158;-73
2022/05/23 06:45:59;;;;;;;9.82;3.75;;;16.00;99.90;;;;;;5069940;28;20765;-74
2022/05/23 06:48:26;;;;;;;9.85;3.35;;;16.10;99.90;;;;;;5069825;28;20047;-74
2022/05/23 06:50:52;;;;;;;9.55;4.53;;;16.20;99.90;;;;;;5069479;28;20095;-73
2022/05/23 06:53:19;;;;;;;7.53;3.97;;;16.30;99.90;;;;;;5051004;28;20052;-73
2022/05/23 06:55:46;;;;;;;5.15;3.08;;;16.40;99.90;;;;;;5068920;28;20506;-72
2022/05/23 06:58:11;;;;;;;10.88;3.90;;;16.50;99.90;;;;;;5070192;28;20040;-74
2022/05/23 07:00:37;;;;;;;13.25;3.92;;;16.60;99.90;;;;;;5050870;28;20067;-74
2022/05/23 07:03:03;;;;;;;6.55;4.00;;;16.90;99.90;;;;;;5069224;28;20052;-74
2022/05/23 07:13:45;;;;;;;7.93;3.50;;;17.10;99.90;;;;;;5070097;28;20118;-73
2022/05/23 07:16:12;;;;;;;8.27;4.55;;;17.10;99.90;;;;;;5075909;28;20522;-74
2022/05/23 07:18:41;;;;;;;7.82;3.70;;;17.30;99.90;;;;;;5090178;28;20125;-74
2022/05/23 07:21:07;;;;;;;9.90;3.95;;;17.40;99.90;;;;;;5089860;28;20075;-73
2022/05/23 07:23:35;;;;;;;9.52;4.03;;;17.40;99.90;;;;;;5089912;28;20070;-73
2022/05/23 07:26:02;;;;;;;6.95;3.72;;;17.60;99.90;;;;;;5088225;28;20145;-75
2022/05/23 07:28:28;;;;;;;9.43;3.72;;;17.60;99.90;;;;;;5090538;28;20052;-80
2022/05/23 07:30:54;;;;;;;6.45;3.38;;;17.60;99.90;;;;;;5071112;28;20066;-75
2022/05/23 07:33:20;;;;;;;8.65;4.30;;;18.00;99.90;;;;;;5089887;28;20125;-73
2022/05/23 07:35:46;;;;;;;10.30;3.75;;;17.90;99.90;;;;;;5089922;28;20475;-76
2022/05/23 07:38:12;;;;;;;7.63;3.75;;;18.00;99.90;;;;;;5089890;28;20043;-75
2022/05/23 07:40:38;;;;;;;8.70;3.30;;;18.10;99.90;;;;;;5089324;28;20745;-74
2022/05/23 07:43:03;;;;;;;9.02;3.75;;;18.20;99.90;;;;;;5089819;28;20047;-74
2022/05/23 07:45:29;;;;;;;8.25;4.25;;;18.30;99.90;;;;;;5089697;28;20042;-75
2022/05/23 07:47:55;;;;;;;6.93;3.40;;;18.30;99.90;;;;;;5071620;28;20535;-73
2022/05/23 07:50:21;;;;;;;10.27;3.95;;;18.40;99.90;;;;;;5089675;28;20112;-75
2022/05/23 08:01:00;;;;;;;11.60;4.00;;;18.70;99.90;;;;;;5049333;28;20044;-75
2022/05/23 08:03:25;;;;;;;10.05;3.53;;;19.00;99.90;;;;;;5076582;28;20506;-73
2022/05/23 08:05:51;;;;;;;6.88;3.50;;;19.20;99.90;;;;;;5074989;28;20117;-74
2022/05/23 08:08:17;;;;;;;10.55;3.90;;;19.20;99.90;;;;;;5072466;28;20111;-77
2022/05/23 08:10:43;;;;;;;8.88;3.47;;;19.30;99.90;;;;;;5072997;28;20198;-74
2022/05/23 08:13:09;;;;;;;7.70;3.72;;;19.40;99.90;;;;;;5035126;28;20059;-73
2022/05/23 08:15:39;;;;;;;8.95;3.90;;;19.40;99.90;;;;;;5070850;28;20935;-74
2022/05/23 08:18:07;;;;;;;8.48;3.80;;;19.40;99.90;;;;;;5093136;28;20411;-73
2022/05/23 08:20:34;;;;;;;9.68;4.40;;;19.50;99.90;;;;;;5075164;28;20076;-72
2022/05/23 08:23:00;;;;;;;9.02;4.35;;;19.80;99.90;;;;;;5093287;28;20048;-73
2022/05/23 08:25:26;;;;;;;7.80;4.03;;;19.90;99.90;;;;;;5092493;28;20123;-76
2022/05/23 08:27:53;;;;;;;6.97;3.38;;;20.00;99.90;;;;;;5092764;28;20055;-75
2022/05/23 08:30:19;;;;;;;6.57;3.97;;;20.30;99.90;;;;;;5093022;28;20055;-75
2022/05/23 08:32:45;;;;;;;10.93;3.55;;;20.50;99.90;;;;;;5092919;28;20044;-73
2022/05/23 08:35:12;;;;;;;14.20;4.18;;;20.50;99.90;;;;;;5092679;28;20047;-73
2022/05/23 08:37:37;;;;;;;6.38;3.63;;;20.60;99.90;;;;;;5092931;28;20059;-74
2022/05/23 08:40:05;;;;;;;8.35;4.13;;;20.60;99.90;;;;;;5074447;28;20043;-74
2022/05/23 08:42:40;;;;;;;6.85;3.95;;;20.60;99.90;;;;;;5092450;28;20135;-74
2022/05/23 08:45:20;;;;;;;10.50;4.43;;;20.60;99.90;;;;;;5092638;28;20043;-74
2022/05/23 08:47:55;;;;;;;10.40;4.03;;;20.70;99.90;;;;;;5092458;28;20051;-74
2022/05/23 08:50:41;;;;;;;6.68;3.90;;;20.90;99.90;;;;;;5091957;28;20059;-72
2022/05/23 08:53:13;;;;;;;9.20;3.70;;;20.90;99.90;;;;;;5092335;28;20489;-73
2022/05/23 08:55:48;;;;;;;7.47;3.58;;;21.20;99.90;;;;;;5074142;28;20052;-74
2022/05/23 08:58:17;;;;;;;7.03;3.45;;;21.40;99.90;;;;;;5074253;28;20485;-74
2022/05/23 09:00:46;;;;;;;9.50;4.07;;;21.80;99.90;;;;;;5092671;28;20051;-74
2022/05/23 09:03:20;;;;;;;7.57;3.70;;;22.10;99.90;;;;;;5092348;28;20047;-74
2022/05/23 09:06:16;;;;;;;15.63;4.43;;;22.30;99.90;;;;;;5092466;28;20119;-73
2022/05/23 09:08:51;;;;;;;8.15;3.70;;;22.50;99.90;;;;;;5092089;28;20293;-73
2022/05/23 09:11:31;;;;;;;;;;;22.70;99.90;;;;;;5092871;28;20048;-76
2022/05/23 09:13:58;;;;;;;9.40;3.47;;;22.80;99.90;;;;;;5092154;28;19932;-75
2022/05/23 09:16:48;;;;;;;6.07;3.17;;;23.00;99.90;;;;;;5090739;28;20051;-74
2022/05/23 09:19:21;;;;;;;9.75;3.80;;;23.10;99.90;;;;;;5009680;28;20453;-73
2022/05/23 09:24:42;;;;;;;7.47;3.75;;;23.40;99.90;;;;;;4992995;28;20058;-72
2022/05/23 09:27:15;;;;;;;9.32;4.00;;;23.60;99.90;;;;;;5008678;28;20100;-76
2022/05/23 09:29:40;;;;;;;8.23;4.43;;;23.80;99.90;;;;;;5015467;28;20063;-76
2022/05/23 09:32:12;;;;;;;10.15;3.80;;;24.00;99.90;;;;;;5029331;28;20045;-75
2022/05/23 09:34:45;;;;;;;10.80;3.30;;;24.00;99.90;;;;;;5029232;28;20069;-73
2022/05/23 09:37:21;;;;;;;5.43;3.40;;;24.00;99.90;;;;;;5028909;28;20057;-81
2022/05/23 09:39:53;;;;;;;5.93;3.05;;;24.00;99.90;;;;;;5029232;28;20532;-77
2022/05/23 09:48:14;;;;;;;5.75;2.90;;;24.20;99.90;;;;;;5028935;28;20140;-77
2022/05/23 09:50:44;;;;;;;10.27;3.20;;;24.30;99.90;;;;;;5028706;28;20065;-76
2022/05/23 09:53:46;;;;;;;7.78;2.90;;;24.30;99.90;;;;;;5028750;28;20045;-76
2022/05/23 09:56:23;;;;;;;6.65;2.03;;;24.30;99.90;;;;;;4988641;28;20062;-77
2022/05/23 09:58:50;;;;;;;6.93;2.15;;;24.40;99.90;;;;;;4992085;28;20646;-78
2022/05/23 10:01:26;;;;;;;5.47;1.85;;;24.30;99.90;;;;;;5008723;28;20089;-74
2022/05/23 10:03:51;;;;;;;7.00;2.08;;;24.40;99.90;;;;;;5009244;28;20120;-76
2022/05/23 10:06:17;;;;;;;8.13;1.80;;;24.50;99.90;;;;;;5008887;28;20590;-75
2022/05/23 10:08:46;;;;;;;5.78;2.13;;;24.50;99.90;;;;;;5009063;28;20050;-74
2022/05/23 10:11:21;;;;;;;10.27;2.40;;;24.60;99.90;;;;;;5009689;28;20060;-74
2022/05/23 10:14:02;;;;;;;5.43;1.67;;;24.60;99.90;;;;;;4992867;28;20082;-78
2022/05/23 10:16:31;;;;;;;7.07;1.92;;;24.70;99.90;;;;;;5008023;28;20064;-76
2022/05/23 10:19:05;;;;;;;5.18;1.60;;;24.80;99.90;;;;;;4992029;28;20097;-78
2022/05/23 10:21:31;;;;;;;;;;;24.90;99.90;;;;;;5008829;28;20497;-76
2022/05/23 10:24:19;;;;;;;6.68;2.20;;;25.10;99.90;;;;;;5008658;28;19929;-76
2022/05/23 10:26:53;;;;;;;5.97;1.67;;;25.40;99.90;;;;;;5002353;28;20501;-75
2022/05/23 10:29:27;;;;;;;4.67;1.40;;;25.30;99.80;;;;;;5007897;28;20045;-74
2022/05/23 10:32:03;;;;;;;9.23;1.80;;;25.40;99.70;;;;;;5015001;28;20181;-76
2022/05/23 10:34:42;;;;;;;4.88;1.40;;;25.60;99.30;;;;;;5070245;28;20047;-77
2022/05/23 10:37:25;;;;;;;5.43;1.50;;;25.90;97.60;;;;;;5052378;28;20044;-75
2022/05/23 10:42:52;;;;;;;4.53;1.30;;;26.20;97.60;;;;;;5070374;28;20059;-75
2022/05/23 10:45:33;;;;;;;4.45;1.35;;;26.20;95.00;;;;;;5069997;28;20510;-76
2022/05/23 10:48:36;;;;;;;3.65;1.60;;;26.40;95.20;;;;;;5084029;28;20047;-77
2022/05/23 10:51:29;;;;;;;4.50;1.38;;;26.50;95.00;;;;;;5090249;28;20079;-75
2022/05/23 10:54:09;;;;;;;6.35;1.63;;;26.60;94.90;;;;;;5090252;28;20048;-75
2022/05/23 10:56:52;;;;;;;3.95;1.30;;;26.80;94.90;;;;;;5090162;28;20501;-78
2022/05/23 10:59:38;;;;;;;3.72;1.65;;;27.00;93.80;;;;;;5088370;28;20051;-76
2022/05/23 11:02:14;;;;;;;5.53;1.77;;;27.00;93.90;;;;;;5089476;28;20047;-77
2022/05/23 11:04:54;;;;;;;4.05;1.38;;;27.30;93.60;;;;;;5072155;28;20549;-78
2022/05/23 11:07:53;;;;;;;5.15;1.65;;;27.50;93.70;;;;;;5090086;28;20538;-78
2022/05/23 11:10:36;;;;;;;2.95;0.98;;;27.70;92.30;;;;;;5089592;28;20252;-79
2022/05/23 11:13:08;;;;;;;4.93;1.30;;;27.70;90.10;;;;;;5089645;28;20048;-82
2022/05/23 11:16:13;;;;;;;3.78;1.38;;;27.70;88.00;;;;;;5089591;28;20036;-76
2022/05/23 11:19:12;;;;;;;4.72;1.27;;;27.80;88.10;;;;;;5090060;28;20077;-74
2022/05/23 11:21:59;;;;;;;5.85;1.50;;;27.80;86.50;;;;;;5089876;28;20524;-75
2022/05/23 11:24:52;;;;;;;5.22;1.63;;;27.80;85.90;;;;;;5090022;28;20459;-74
2022/05/23 11:35:41;;;;;;;3.92;1.35;;;28.10;84.90;;;;;;5089737;28;20099;-76
2022/05/23 11:38:08;;;;;;;7.18;1.98;;;28.10;85.30;;;;;;5091052;28;20756;-81
2022/05/23 11:40:37;;;;;;;4.38;1.30;;;28.10;85.40;;;;;;5075848;28;20548;-79
2022/05/23 11:43:09;;;;;;;3.33;1.38;;;27.90;83.10;;;;;;5093905;28;20118;-80
2022/05/23 11:48:47;;;;;;;9.82;1.70;;;27.70;83.40;;;;;;5093626;28;20048;-77
2022/05/23 11:51:17;;;;;;;5.57;1.50;;;27.90;85.60;;;;;;5093818;28;20121;-79
2022/05/23 11:54:00;;;;;;;4.93;1.85;;;27.90;84.20;;;;;;5093893;28;20060;-81
2022/05/23 11:56:49;;;;;;;3.97;1.40;;;27.80;83.50;;;;;;5093619;28;20185;-81
2022/05/23 11:59:23;;;;;;;6.00;1.77;;;27.80;84.30;;;;;;5074648;28;20048;-79
2022/05/23 12:02:08;;;;;;;4.85;1.90;;;27.70;84.40;;;;;;5091014;28;20495;-79
2022/05/23 12:04:48;;;;;;;5.80;1.60;;;27.90;86.60;;;;;;5093623;28;20044;-76
2022/05/23 12:07:42;;;;;;;5.70;2.00;;;27.90;85.60;;;;;;5093432;28;20052;-80
2022/05/23 12:10:36;;;;;;;4.68;1.50;;;27.70;82.60;;;;;;5092645;28;20076;-78
2022/05/23 12:13:51;;;;;;;9.80;1.40;;;27.70;82.60;;;;;;5075090;28;20044;-75
2022/05/23 12:16:37;;;;;;;3.47;1.38;;;27.60;81.40;;;;;;5010685;28;20053;-79
2022/05/23 12:19:27;;;;;;;6.25;1.20;;;27.50;81.50;;;;;;5030337;28;20408;-77
2022/05/23 12:22:12;;;;;;;6.40;1.20;;;27.30;81.60;;;;;;5030402;28;20050;-78
2022/05/23 12:24:57;;;;;;;4.95;1.48;;;27.10;79.60;;;;;;5030316;28;20060;-77
2022/05/23 12:27:32;;;;;;;4.88;1.48;;;26.90;80.90;;;;;;5030659;28;20057;-77
2022/05/23 12:30:22;;;;;;;9.18;2.03;;;26.90;81.70;;;;;;5030362;28;20041;-77
2022/05/23 12:32:53;;;;;;;4.57;1.20;;;26.90;81.60;;;;;;5013950;28;20110;-77
2022/05/23 12:35:28;;;;;;;3.38;1.33;;;26.80;82.00;;;;;;5014400;28;20053;-77
2022/05/23 12:38:02;;;;;;;3.80;1.10;;;26.60;80.70;;;;;;5030794;28;20575;-74
2022/05/23 12:40:52;;;;;;;7.38;1.90;;;26.60;80.70;;;;;;5030310;28;20431;-74
2022/05/23 12:43:44;;;;;;;9.38;2.08;;;26.50;81.20;;;;;;5030653;28;20088;-75
2022/05/23 12:46:15;;;;;;;4.15;1.00;;;26.40;81.10;;;;;;5030342;28;20056;-79
2022/05/23 12:48:55;;;;;;;3.70;1.50;;;26.40;81.30;;;;;;5030584;28;20115;-78
2022/05/23 12:51:50;;;;;;;3.42;1.30;;;26.30;82.50;;;;;;5051031;28;20482;-79
2022/05/23 12:54:16;;;;;;;;;;;26.30;82.40;;;;;;5035181;28;20102;-77
2022/05/23 12:56:51;;;;;;;3.00;1.05;;;26.20;82.90;;;;;;5052664;28;20387;-79
2022/05/23 12:59:30;;;;;;;8.60;1.35;;;26.20;83.60;;;;;;5052529;28;20107;-75
2022/05/23 13:02:11;;;;;;;8.48;1.10;;;26.20;82.50;;;;;;5052136;28;20128;-81
2022/05/23 13:04:53;;;;;;;5.47;1.38;;;26.10;83.10;;;;;;5057956;28;20045;-80
2022/05/23 13:07:22;;;;;;;6.40;1.20;;;25.90;83.30;;;;;;5055239;28;20399;-79
2022/05/23 13:10:00;;;;;;;4.43;1.38;;;25.80;83.50;;;;;;5072887;28;20040;-78
2022/05/23 13:12:29;;;;;;;7.32;1.50;;;25.70;83.00;;;;;;5053571;28;20053;-78
2022/05/23 13:15:00;;;;;;;4.07;1.40;;;25.60;83.40;;;;;;5072278;28;20044;-78
2022/05/23 13:17:37;;;;;;;4.90;1.50;;;25.50;83.70;;;;;;5071592;28;20617;-82
2022/05/23 13:23:18;;;;;;;4.45;1.38;;;25.40;84.50;;;;;;5053853;28;20056;-76
2022/05/23 13:25:45;;;;;;;5.35;1.67;;;25.30;86.00;;;;;;5053808;28;20045;-75
2022/05/23 13:28:13;;;;;;;5.38;2.25;;;25.10;86.60;;;;;;5071661;28;20067;-76
2022/05/23 13:30:45;;;;;;;5.18;1.70;;;25.10;87.30;;;;;;5071645;28;20041;-75
2022/05/23 13:33:21;;;;;;;5.00;1.65;;;24.90;89.30;;;;;;5071553;28;20098;-74
2022/05/23 13:35:53;;;;;;;6.80;1.95;;;24.90;89.60;;;;;;5052715;28;20029;-76
2022/05/23 13:38:21;;;;;;;4.80;1.80;;;24.80;90.10;;;;;;5071632;28;20052;-74
2022/05/23 13:40:56;;;;;;;4.70;1.65;;;24.70;90.50;;;;;;5071505;28;20101;-76
2022/05/23 13:43:41;;;;;;;;;;;24.80;90.50;;;;;;5072116;28;20131;-76
2022/05/23 13:46:27;;;;;;;6.15;1.92;;;24.70;91.10;;;;;;5070754;28;19938;-78
2022/05/23 13:49:12;;;;;;;5.05;1.70;;;24.70;91.60;;;;;;5070076;28;20275;-78
2022/05/23 13:52:13;;;;;;;7.55;2.08;;;24.80;91.80;;;;;;5053073;28;20040;-77
2022/05/23 13:54:51;;;;;;;3.60;1.65;;;24.80;91.90;;;;;;4970153;28;20063;-78
2022/05/23 13:57:19;;;;;;;4.50;1.70;;;24.90;91.50;;;;;;4970057;28;20580;-75
2022/05/23 13:59:53;;;;;;;7.53;1.83;;;24.90;90.80;;;;;;4969930;28;20050;-74
2022/05/23 14:02:24;;;;;;;9.25;2.65;;;25.00;90.60;;;;;;4969726;28;20742;-75
2022/05/23 14:04:53;;;;;;;4.22;1.80;;;25.00;90.70;;;;;;4969840;28;20113;-75
2022/05/23 14:07:23;;;;;;;7.60;1.77;;;24.90;91.10;;;;;;4970169;28;20451;-74
2022/05/23 14:09:52;;;;;;;7.50;1.58;;;24.90;91.00;;;;;;4969969;28;20098;-78
2022/05/23 14:12:28;;;;;;;6.55;1.98;;;24.80;91.80;;;;;;4953629;28;20043;-74
2022/05/23 14:15:00;;;;;;;6.93;2.05;;;24.70;92.00;;;;;;4969630;28;20523;-77
2022/05/23 14:17:37;;;;;;;7.68;2.03;;;24.70;92.20;;;;;;4985117;28;20061;-73